sensor_id;sensor_type;location;lat;lon;timestamp;P1;durP1;ratioP1;P2;durP2;ratioP2
24451;SDS011;13350;50.984;5.822;2023-03-26T00:02:00;16.33;;;2.95;;
24451;SDS011;13350;50.984;5.822;2023-03-26T00:04:27;17.25;;;3.03;;
24451;SDS011;13350;50.984;5.822;2023-03-26T00:06:57;14.25;;;2.75;;
24451;SDS011;13350;50.984;5.822;2023-03-26T00:09:24;12.70;;;3.00;;
24451;SDS011;13350;50.984;5.822;2023-03-26T00:11:53;9.32;;;2.75;;
24451;SDS011;13350;50.984;5.822;2023-03-26T00:14:21;15.00;;;2.72;;
24451;SDS011;13350;50.984;5.822;2023-03-26T00:16:49;17.63;;;2.90;;
24451;SDS011;13350;50.984;5.822;2023-03-26T00:19:19;13.40;;;2.92;;
24451;SDS011;13350;50.984;5.822;2023-03-26T00:21:46;13.50;;;3.05;;
24451;SDS011;13350;50.984;5.822;2023-03-26T00:24:16;12.65;;;3.22;;
24451;SDS011;13350;50.984;5.822;2023-03-26T00:26:43;12.60;;;3.22;;
24451;SDS011;13350;50.984;5.822;2023-03-26T00:29:17;11.60;;;2.78;;
24451;SDS011;13350;50.984;5.822;2023-03-26T00:31:44;11.57;;;2.80;;
24451;SDS011;13350;50.984;5.822;2023-03-26T00:34:11;12.40;;;2.38;;
24451;SDS011;13350;50.984;5.822;2023-03-26T00:36:41;10.70;;;2.33;;
24451;SDS011;13350;50.984;5.822;2023-03-26T00:39:08;14.32;;;2.72;;
24451;SDS011;13350;50.984;5.822;2023-03-26T00:41:35;12.85;;;2.70;;
24451;SDS011;13350;50.984;5.822;2023-03-26T00:44:07;9.40;;;2.85;;
24451;SDS011;13350;50.984;5.822;2023-03-26T00:46:34;13.10;;;3.10;;
24451;SDS011;13350;50.984;5.822;2023-03-26T00:49:02;11.52;;;2.95;;
24451;SDS011;13350;50.984;5.822;2023-03-26T00:51:29;13.63;;;2.72;;
24451;SDS011;13350;50.984;5.822;2023-03-26T00:53:58;13.32;;;2.97;;
24451;SDS011;13350;50.984;5.822;2023-03-26T00:56:26;11.77;;;2.38;;
24451;SDS011;13350;50.984;5.822;2023-03-26T00:58:53;12.27;;;2.33;;
24451;SDS011;13350;50.984;5.822;2023-03-26T01:01:23;8.88;;;2.35;;
24451;SDS011;13350;50.984;5.822;2023-03-26T01:03:51;8.75;;;2.03;;
24451;SDS011;13350;50.984;5.822;2023-03-26T01:06:23;16.08;;;2.80;;
24451;SDS011;13350;50.984;5.822;2023-03-26T01:08:57;9.20;;;1.90;;
24451;SDS011;13350;50.984;5.822;2023-03-26T01:11:31;9.07;;;1.95;;
24451;SDS011;13350;50.984;5.822;2023-03-26T01:14:01;8.18;;;1.92;;
24451;SDS011;13350;50.984;5.822;2023-03-26T01:16:34;8.55;;;1.67;;
24451;SDS011;13350;50.984;5.822;2023-03-26T01:19:07;7.90;;;2.10;;
24451;SDS011;13350;50.984;5.822;2023-03-26T01:21:37;9.90;;;1.90;;
24451;SDS011;13350;50.984;5.822;2023-03-26T01:24:06;7.28;;;2.05;;
24451;SDS011;13350;50.984;5.822;2023-03-26T01:26:44;8.85;;;1.85;;
24451;SDS011;13350;50.984;5.822;2023-03-26T01:29:28;6.93;;;1.58;;
24451;SDS011;13350;50.984;5.822;2023-03-26T01:32:03;4.60;;;1.33;;
24451;SDS011;13350;50.984;5.822;2023-03-26T01:34:45;1.95;;;0.85;;
24451;SDS011;13350;50.984;5.822;2023-03-26T01:37:22;6.75;;;1.20;;
24451;SDS011;13350;50.984;5.822;2023-03-26T01:39:58;8.93;;;2.20;;
24451;SDS011;13350;50.984;5.822;2023-03-26T01:42:32;6.47;;;1.63;;
24451;SDS011;13350;50.984;5.822;2023-03-26T01:45:06;9.63;;;2.88;;
24451;SDS011;13350;50.984;5.822;2023-03-26T01:47:38;5.85;;;1.40;;
24451;SDS011;13350;50.984;5.822;2023-03-26T01:50:08;7.28;;;2.15;;
24451;SDS011;13350;50.984;5.822;2023-03-26T01:52:35;9.73;;;2.22;;
24451;SDS011;13350;50.984;5.822;2023-03-26T01:55:05;5.65;;;1.80;;
24451;SDS011;13350;50.984;5.822;2023-03-26T01:57:37;6.53;;;1.67;;
24451;SDS011;13350;50.984;5.822;2023-03-26T02:00:16;2.65;;;0.77;;
24451;SDS011;13350;50.984;5.822;2023-03-26T02:02:53;5.45;;;1.52;;
24451;SDS011;13350;50.984;5.822;2023-03-26T02:05:30;11.02;;;1.48;;
24451;SDS011;13350;50.984;5.822;2023-03-26T02:08:03;7.13;;;1.83;;
24451;SDS011;13350;50.984;5.822;2023-03-26T02:10:39;6.72;;;1.38;;
24451;SDS011;13350;50.984;5.822;2023-03-26T02:13:08;6.45;;;1.60;;
24451;SDS011;13350;50.984;5.822;2023-03-26T02:15:36;7.80;;;2.03;;
24451;SDS011;13350;50.984;5.822;2023-03-26T02:18:04;8.90;;;1.60;;
24451;SDS011;13350;50.984;5.822;2023-03-26T02:20:35;8.43;;;1.67;;
24451;SDS011;13350;50.984;5.822;2023-03-26T22:53:39;4.25;;;1.38;;
24451;SDS011;13350;50.984;5.822;2023-03-26T22:56:08;5.43;;;1.35;;
24451;SDS011;13350;50.984;5.822;2023-03-26T22:58:36;7.68;;;1.60;;
24451;SDS011;13350;50.984;5.822;2023-03-26T23:01:05;4.97;;;1.60;;
24451;SDS011;13350;50.984;5.822;2023-03-26T23:03:34;4.47;;;1.77;;
24451;SDS011;13350;50.984;5.822;2023-03-26T23:06:04;5.22;;;1.75;;
24451;SDS011;13350;50.984;5.822;2023-03-26T23:08:34;6.60;;;1.55;;
24451;SDS011;13350;50.984;5.822;2023-03-26T23:11:07;3.40;;;1.27;;
24451;SDS011;13350;50.984;5.822;2023-03-26T23:16:04;7.10;;;1.80;;
24451;SDS011;13350;50.984;5.822;2023-03-26T23:18:32;6.57;;;1.65;;
24451;SDS011;13350;50.984;5.822;2023-03-26T23:21:00;5.85;;;1.77;;
24451;SDS011;13350;50.984;5.822;2023-03-26T23:23:30;9.00;;;1.75;;
24451;SDS011;13350;50.984;5.822;2023-03-26T23:26:00;3.42;;;0.95;;
24451;SDS011;13350;50.984;5.822;2023-03-26T23:28:30;8.68;;;1.55;;
24451;SDS011;13350;50.984;5.822;2023-03-26T23:30:59;5.57;;;1.30;;
24451;SDS011;13350;50.984;5.822;2023-03-26T23:33:29;5.57;;;1.20;;
24451;SDS011;13350;50.984;5.822;2023-03-26T23:35:59;4.85;;;1.88;;
24451;SDS011;13350;50.984;5.822;2023-03-26T23:38:33;10.10;;;1.80;;
24451;SDS011;13350;50.984;5.822;2023-03-26T23:41:01;8.80;;;1.83;;
24451;SDS011;13350;50.984;5.822;2023-03-26T23:43:30;5.95;;;1.48;;
24451;SDS011;13350;50.984;5.822;2023-03-26T23:45:58;6.35;;;1.38;;
24451;SDS011;13350;50.984;5.822;2023-03-26T23:48:25;7.22;;;1.42;;
24451;SDS011;13350;50.984;5.822;2023-03-26T23:50:54;5.57;;;1.65;;
24451;SDS011;13350;50.984;5.822;2023-03-26T23:53:25;5.97;;;1.27;;
24451;SDS011;13350;50.984;5.822;2023-03-26T23:55:54;7.20;;;1.23;;
24451;SDS011;13350;50.984;5.822;2023-03-26T23:58:23;7.30;;;1.50;;
